createdAt,value
2019-04-25T00:02:01.899Z,10.00
2019-04-25T00:04:33.283Z,10.00
2019-04-25T00:07:04.299Z,9.80
2019-04-25T00:09:41.948Z,9.80
2019-04-25T00:12:12.195Z,9.70
2019-04-25T00:14:43.716Z,9.70
2019-04-25T00:17:14.299Z,9.50
2019-04-25T00:19:44.331Z,9.50
2019-04-25T00:22:51.528Z,9.50
2019-04-25T00:25:51.217Z,9.50
2019-04-25T00:28:21.695Z,9.40
2019-04-25T00:30:52.323Z,9.30
2019-04-25T00:33:23.015Z,9.20
2019-04-25T00:35:52.843Z,9.10
2019-04-25T00:38:22.783Z,9.00
2019-04-25T00:40:53.576Z,9.00
2019-04-25T00:43:24.034Z,9.00
2019-04-25T00:45:53.861Z,9.00
2019-04-25T00:48:23.685Z,9.00
2019-04-25T00:50:54.638Z,9.00
2019-04-25T00:53:24.518Z,8.80
2019-04-25T00:55:54.630Z,8.80
2019-04-25T00:58:32.319Z,8.80
2019-04-25T01:01:13.451Z,8.80
2019-04-25T01:03:44.142Z,8.70
2019-04-25T01:06:14.460Z,8.60
2019-04-25T01:08:44.313Z,8.50
2019-04-25T01:11:14.163Z,8.50
2019-04-25T01:13:44.637Z,8.30
2019-04-25T01:16:14.758Z,8.20
2019-04-25T01:18:45.404Z,8.10
2019-04-25T01:21:15.425Z,8.00
2019-04-25T01:23:45.809Z,7.90
2019-04-25T01:26:15.926Z,7.90
2019-04-25T01:28:46.188Z,7.90
2019-04-25T01:31:17.893Z,7.90
2019-04-25T01:33:48.297Z,7.80
2019-04-25T01:36:44.346Z,7.70
2019-04-25T01:39:33.786Z,7.70
2019-04-25T01:42:20.035Z,7.80
2019-04-25T01:44:50.426Z,7.70
2019-04-25T01:47:21.549Z,7.70
2019-04-25T01:49:52.806Z,7.50
2019-04-25T01:52:23.585Z,7.50
2019-04-25T01:54:55.062Z,7.40
2019-04-25T01:57:24.987Z,7.40
2019-04-25T01:59:55.403Z,7.30
2019-04-25T02:02:28.099Z,7.20
2019-04-25T02:04:59.406Z,7.20
2019-04-25T02:07:29.503Z,7.00
2019-04-25T02:09:59.436Z,7.10
2019-04-25T02:12:34.298Z,7.10
2019-04-25T02:15:06.214Z,7.10
2019-04-25T02:17:36.173Z,7.10
2019-04-25T02:20:06.198Z,7.10
2019-04-25T02:22:36.239Z,7.10
2019-04-25T02:25:06.342Z,6.90
2019-04-25T02:27:36.245Z,6.80
2019-04-25T02:30:07.089Z,6.80
2019-04-25T02:32:37.350Z,6.70
2019-04-25T02:35:09.547Z,6.70
2019-04-25T02:37:40.307Z,6.70
2019-04-25T02:40:10.605Z,6.70
2019-04-25T02:42:40.534Z,6.70
2019-04-25T02:45:30.730Z,6.70
2019-04-25T02:48:34.160Z,6.70
2019-04-25T02:51:28.903Z,6.60
2019-04-25T02:53:59.702Z,6.60
2019-04-25T02:56:34.429Z,6.50
2019-04-25T02:59:02.672Z,6.40
2019-04-25T03:01:34.237Z,6.40
2019-04-25T03:04:07.458Z,6.40
2019-04-25T03:06:36.063Z,6.30
2019-04-25T03:09:09.986Z,6.40
2019-04-25T03:11:40.292Z,6.20
2019-04-25T03:14:10.408Z,6.20
2019-04-25T03:16:40.384Z,6.30
2019-04-25T03:19:29.453Z,6.30
2019-04-25T03:22:01.555Z,6.20
2019-04-25T03:24:34.922Z,6.10
2019-04-25T03:27:05.186Z,6.00
2019-04-25T03:29:36.007Z,6.10
2019-04-25T03:32:11.320Z,6.20
2019-04-25T03:34:37.450Z,6.10
2019-04-25T03:37:07.640Z,6.00
2019-04-25T03:39:37.580Z,6.00
2019-04-25T03:42:07.801Z,6.10
2019-04-25T03:44:38.103Z,6.10
2019-04-25T03:47:08.662Z,6.00
2019-04-25T03:49:38.804Z,5.80
2019-04-25T03:52:08.765Z,5.80
2019-04-25T03:54:38.780Z,5.90
2019-04-25T03:57:08.788Z,5.90
2019-04-25T03:59:38.695Z,5.80
2019-04-25T04:02:09.107Z,5.80
2019-04-25T04:04:39.129Z,5.90
2019-04-25T04:07:11.026Z,5.90
2019-04-25T04:09:40.447Z,5.80
2019-04-25T04:12:10.616Z,5.70
2019-04-25T04:14:40.381Z,5.70
2019-04-25T04:17:16.080Z,5.60
2019-04-25T04:20:13.881Z,5.60
2019-04-25T04:22:48.999Z,5.60
2019-04-25T04:25:19.667Z,5.70
2019-04-25T04:27:49.531Z,5.70
2019-04-25T04:30:19.424Z,5.80
2019-04-25T04:32:49.227Z,6.00
2019-04-25T04:35:19.508Z,6.00
2019-04-25T04:37:49.342Z,6.10
2019-04-25T04:40:19.815Z,6.20
2019-04-25T04:42:49.677Z,6.30
2019-04-25T04:45:19.541Z,6.40
2019-04-25T04:47:50.427Z,6.60
2019-04-25T04:50:20.377Z,6.80
2019-04-25T04:52:50.170Z,6.90
2019-04-25T04:55:19.996Z,7.00
2019-04-25T04:57:49.766Z,7.20
2019-04-25T05:00:19.879Z,7.20
2019-04-25T05:03:06.573Z,7.30
2019-04-25T05:05:44.050Z,7.40
2019-04-25T05:08:31.699Z,7.60
2019-04-25T05:11:01.492Z,7.70
2019-04-25T05:13:31.318Z,7.60
2019-04-25T05:16:01.073Z,7.70
2019-04-25T05:18:37.219Z,7.80
2019-04-25T05:21:04.222Z,8.00
2019-04-25T05:23:34.455Z,8.20
2019-04-25T05:26:04.457Z,8.30
2019-04-25T05:28:34.680Z,8.40
2019-04-25T05:31:16.909Z,8.50
2019-04-25T05:33:48.538Z,8.70
2019-04-25T05:36:18.523Z,8.90
2019-04-25T05:38:48.879Z,9.00
2019-04-25T05:41:31.706Z,9.20
2019-04-25T05:44:01.562Z,9.20
2019-04-25T05:46:31.393Z,9.40
2019-04-25T05:49:03.495Z,9.60
2019-04-25T05:51:33.902Z,9.70
2019-04-25T05:54:04.205Z,9.90
2019-04-25T05:56:34.158Z,10.20
2019-04-25T05:59:05.472Z,10.40
2019-04-25T06:01:37.078Z,10.80
2019-04-25T06:04:06.999Z,11.20
2019-04-25T06:06:36.982Z,11.90
2019-04-25T06:09:19.320Z,13.10
2019-04-25T06:12:06.955Z,14.40
2019-04-25T06:14:37.064Z,15.50
2019-04-25T06:17:13.669Z,16.90
2019-04-25T06:19:53.811Z,17.50
2019-04-25T06:22:47.867Z,18.10
2019-04-25T06:25:22.991Z,18.10
2019-04-25T06:27:58.621Z,19.30
2019-04-25T06:30:28.114Z,20.20
2019-04-25T06:32:58.033Z,20.90
2019-04-25T06:35:27.857Z,21.30
2019-04-25T06:38:01.081Z,22.00
2019-04-25T06:40:30.841Z,22.40
2019-04-25T06:43:00.625Z,22.20
2019-04-25T06:45:54.093Z,22.90
2019-04-25T06:48:46.501Z,23.50
2019-04-25T06:51:16.496Z,23.00
2019-04-25T06:53:46.254Z,24.00
2019-04-25T06:56:16.086Z,23.60
2019-04-25T06:58:46.007Z,22.90
2019-04-25T07:01:15.871Z,22.60
2019-04-25T07:03:45.735Z,22.30
2019-04-25T07:06:15.548Z,22.50
2019-04-25T07:08:45.426Z,23.40
2019-04-25T07:11:15.546Z,24.00
2019-04-25T07:13:46.286Z,23.60
2019-04-25T07:16:16.508Z,24.70
2019-04-25T07:18:46.722Z,24.50
2019-04-25T07:21:16.652Z,24.40
2019-04-25T07:23:46.546Z,23.20
2019-04-25T07:26:36.544Z,23.30
2019-04-25T07:29:24.798Z,23.40
2019-04-25T07:32:14.480Z,23.90
2019-04-25T07:34:44.762Z,21.60
2019-04-25T07:37:14.663Z,21.90
2019-04-25T07:39:44.599Z,22.20
2019-04-25T07:42:17.116Z,22.90
2019-04-25T07:44:52.482Z,24.50
2019-04-25T07:47:18.969Z,23.80
2019-04-25T07:49:48.725Z,22.20
2019-04-25T07:52:20.271Z,22.70
2019-04-25T07:54:50.178Z,23.20
2019-04-25T07:57:19.934Z,23.50
2019-04-25T07:59:51.642Z,23.60
2019-04-25T08:02:21.412Z,23.00
2019-04-25T08:04:52.072Z,22.90
2019-04-25T08:07:23.683Z,22.90
2019-04-25T08:09:54.263Z,22.90
2019-04-25T08:12:25.293Z,23.50
2019-04-25T08:15:04.290Z,23.70
2019-04-25T08:17:53.891Z,24.00
2019-04-25T08:20:24.246Z,23.80
2019-04-25T08:22:58.514Z,25.40
2019-04-25T08:25:26.053Z,26.90
2019-04-25T08:27:55.953Z,26.20
2019-04-25T08:30:25.887Z,27.00
2019-04-25T08:32:55.820Z,26.70
2019-04-25T08:35:25.714Z,27.00
2019-04-25T08:37:55.930Z,28.30
2019-04-25T08:42:55.115Z,28.90
2019-04-25T08:45:26.921Z,29.70
2019-04-25T08:47:56.673Z,29.30
2019-04-25T08:50:39.482Z,29.40
2019-04-25T08:53:07.410Z,29.00
2019-04-25T08:55:45.584Z,28.20
2019-04-25T08:58:37.495Z,29.10
2019-04-25T09:01:31.549Z,28.70
2019-04-25T09:04:17.880Z,26.80
2019-04-25T09:06:47.901Z,29.10
2019-04-25T09:09:17.817Z,30.00
2019-04-25T09:11:47.861Z,30.00
2019-04-25T09:14:17.809Z,28.80
2019-04-25T09:16:47.744Z,30.80
2019-04-25T09:19:17.683Z,30.80
2019-04-25T09:21:49.468Z,30.20
2019-04-25T09:24:19.170Z,31.30
2019-04-25T09:26:49.530Z,31.20
2019-04-25T09:29:20.071Z,32.50
2019-04-25T09:32:03.749Z,31.30
2019-04-25T09:34:43.718Z,31.10
2019-04-25T09:37:14.304Z,30.90
2019-04-25T09:40:04.251Z,32.10
2019-04-25T09:42:35.606Z,33.30
2019-04-25T09:48:35.434Z,33.90
2019-04-25T09:51:25.038Z,33.70
2019-04-25T09:54:01.205Z,32.20
2019-04-25T09:56:36.587Z,32.70
2019-04-25T09:59:13.681Z,32.70
2019-04-25T10:01:46.533Z,31.60
2019-04-25T10:04:16.493Z,32.00
2019-04-25T10:06:47.542Z,31.80
2019-04-25T10:09:17.985Z,31.40
2019-04-25T10:11:47.939Z,30.70
2019-04-25T10:14:32.259Z,30.60
2019-04-25T10:17:04.567Z,30.00
2019-04-25T10:19:34.862Z,29.40
2019-04-25T10:22:05.293Z,29.50
2019-04-25T10:24:35.195Z,29.10
2019-04-25T10:27:05.398Z,28.10
2019-04-25T10:29:42.926Z,28.30
2019-04-25T10:32:07.190Z,28.50
2019-04-25T10:34:37.307Z,28.80
2019-04-25T10:37:07.518Z,29.60
2019-04-25T10:39:37.439Z,29.00
2019-04-25T10:42:11.449Z,29.10
2019-04-25T10:44:41.779Z,29.50
2019-04-25T10:47:11.730Z,28.50
2019-04-25T10:49:42.597Z,27.90
2019-04-25T10:52:13.916Z,28.90
2019-04-25T10:54:45.343Z,28.50
2019-04-25T10:57:16.086Z,28.60
2019-04-25T10:59:57.893Z,29.90
2019-04-25T11:02:17.763Z,29.40
2019-04-25T11:04:54.434Z,29.90
2019-04-25T11:07:25.153Z,29.60
2019-04-25T11:10:32.217Z,30.70
2019-04-25T11:13:03.973Z,31.50
2019-04-25T11:15:34.985Z,31.10
2019-04-25T11:18:04.927Z,29.90
2019-04-25T11:20:35.290Z,29.10
2019-04-25T11:23:05.314Z,29.20
2019-04-25T11:25:35.300Z,28.70
2019-04-25T11:28:07.598Z,29.20
2019-04-25T11:30:37.594Z,30.60
2019-04-25T11:33:09.309Z,30.20
2019-04-25T11:35:41.460Z,29.50
2019-04-25T11:38:13.875Z,29.10
2019-04-25T11:40:51.252Z,29.00
2019-04-25T11:43:20.850Z,29.40
2019-04-25T11:45:53.754Z,29.80
2019-04-25T11:48:41.145Z,30.40
2019-04-25T11:51:13.844Z,31.10
2019-04-25T11:53:45.038Z,32.40
2019-04-25T11:56:24.148Z,31.90
2019-04-25T11:58:55.308Z,30.10
2019-04-25T12:01:25.869Z,29.40
2019-04-25T12:03:56.167Z,29.00
2019-04-25T12:06:26.016Z,30.80
2019-04-25T12:08:56.429Z,32.50
2019-04-25T12:11:26.803Z,32.20
2019-04-25T12:13:56.982Z,30.40
2019-04-25T12:16:27.233Z,31.30
2019-04-25T12:18:57.298Z,31.00
2019-04-25T12:21:27.393Z,32.40
2019-04-25T12:24:05.909Z,33.50
2019-04-25T12:26:36.159Z,32.70
2019-04-25T12:29:06.009Z,30.70
2019-04-25T12:31:35.859Z,30.00
2019-04-25T12:34:06.691Z,30.90
2019-04-25T12:36:59.970Z,32.40
2019-04-25T12:39:30.021Z,33.30
2019-04-25T12:41:59.933Z,33.40
2019-04-25T12:44:41.120Z,33.00
2019-04-25T12:47:30.787Z,32.30
2019-04-25T12:50:00.689Z,31.80
2019-04-25T12:52:30.603Z,31.90
2019-04-25T12:55:00.534Z,31.70
2019-04-25T12:57:30.468Z,31.70
2019-04-25T13:00:00.498Z,31.50
2019-04-25T13:02:33.778Z,31.60
2019-04-25T13:05:09.159Z,30.90
2019-04-25T13:07:41.019Z,29.70
2019-04-25T13:10:13.149Z,28.20
2019-04-25T13:12:44.356Z,27.60
2019-04-25T13:15:15.448Z,27.40
2019-04-25T13:17:45.475Z,27.70
2019-04-25T13:20:15.628Z,29.20
2019-04-25T13:22:45.737Z,30.50
2019-04-25T13:25:18.417Z,31.50
2019-04-25T13:28:04.066Z,32.20
2019-04-25T13:30:42.531Z,32.60
2019-04-25T13:33:34.454Z,32.90
2019-04-25T13:36:34.647Z,33.00
2019-04-25T13:39:11.626Z,33.10
2019-04-25T13:41:44.604Z,33.00
2019-04-25T13:44:14.835Z,32.60
2019-04-25T13:46:46.058Z,32.30
2019-04-25T13:49:16.021Z,32.10
2019-04-25T13:51:46.009Z,32.20
2019-04-25T13:54:16.024Z,32.20
2019-04-25T13:56:45.917Z,31.70
2019-04-25T13:59:35.042Z,31.60
2019-04-25T14:02:07.063Z,31.00
2019-04-25T14:04:38.819Z,29.90
2019-04-25T14:07:08.935Z,29.10
2019-04-25T14:09:39.093Z,28.20
2019-04-25T14:12:09.257Z,27.50
2019-04-25T14:14:39.190Z,26.90
2019-04-25T14:17:28.275Z,26.80
2019-04-25T14:20:15.853Z,26.50
2019-04-25T14:22:45.962Z,26.20
2019-04-25T14:25:16.214Z,26.20
2019-04-25T14:27:46.152Z,26.20
2019-04-25T14:32:47.021Z,26.30
2019-04-25T14:35:43.043Z,26.30
2019-04-25T14:38:13.890Z,26.00
2019-04-25T14:43:29.723Z,25.90
2019-04-25T14:46:19.155Z,26.10
2019-04-25T14:48:50.258Z,26.40
2019-04-25T14:51:23.021Z,26.60
2019-04-25T14:53:53.161Z,26.80
2019-04-25T14:56:45.118Z,26.80
2019-04-25T14:59:15.017Z,26.70
2019-04-25T15:01:45.406Z,26.40
2019-04-25T15:04:15.621Z,26.00
2019-04-25T15:06:45.479Z,25.70
2019-04-25T15:09:15.735Z,25.60
2019-04-25T15:11:45.576Z,25.60
2019-04-25T15:14:15.401Z,25.60
2019-04-25T15:16:45.657Z,25.50
2019-04-25T15:19:15.532Z,25.30
2019-04-25T15:21:45.450Z,25.20
2019-04-25T15:24:15.285Z,25.20
2019-04-25T15:26:45.085Z,25.20
2019-04-25T15:29:14.981Z,25.20
2019-04-25T15:31:55.459Z,25.20
2019-04-25T15:34:17.849Z,25.20
2019-04-25T15:37:12.818Z,25.30
2019-04-25T15:39:50.173Z,25.30
2019-04-25T15:42:42.829Z,25.40
2019-04-25T15:45:34.825Z,25.40
2019-04-25T15:48:06.769Z,25.40
2019-04-25T15:50:36.967Z,25.30
2019-04-25T15:53:06.799Z,25.20
2019-04-25T15:55:36.713Z,25.30
2019-04-25T15:58:06.646Z,25.40
2019-04-25T16:00:37.163Z,25.60
2019-04-25T16:03:07.576Z,25.60
2019-04-25T16:05:38.306Z,25.50
2019-04-25T16:08:09.681Z,25.40
2019-04-25T16:10:39.665Z,25.20
2019-04-25T16:13:10.905Z,25.20
2019-04-25T16:15:41.502Z,25.00
2019-04-25T16:18:12.642Z,25.00
2019-04-25T16:20:42.742Z,24.80
2019-04-25T16:23:12.784Z,24.80
2019-04-25T16:25:42.557Z,24.80
2019-04-25T16:28:12.826Z,24.80
2019-04-25T16:30:43.666Z,24.80
2019-04-25T16:33:13.530Z,24.70
2019-04-25T16:35:44.063Z,24.80
2019-04-25T16:38:14.468Z,24.80
2019-04-25T16:40:45.422Z,24.70
2019-04-25T16:43:19.357Z,24.70
2019-04-25T16:45:49.333Z,24.70
2019-04-25T16:48:19.385Z,24.70
2019-04-25T16:50:50.615Z,24.70
2019-04-25T16:53:20.531Z,24.70
2019-04-25T16:55:50.686Z,24.70
2019-04-25T16:58:23.263Z,24.60
2019-04-25T17:00:57.949Z,24.60
2019-04-25T17:03:29.949Z,24.50
2019-04-25T17:06:00.107Z,24.40
2019-04-25T17:08:31.010Z,24.40
2019-04-25T17:11:01.343Z,24.30
2019-04-25T17:13:33.730Z,24.20
2019-04-25T17:16:39.557Z,24.00
2019-04-25T17:19:14.932Z,24.00
2019-04-25T17:21:45.293Z,23.90
2019-04-25T17:24:15.270Z,23.80
2019-04-25T17:26:45.146Z,23.70
2019-04-25T17:29:18.960Z,23.60
2019-04-25T17:32:14.157Z,23.50
2019-04-25T17:35:08.999Z,23.40
2019-04-25T17:37:46.116Z,23.30
2019-04-25T17:40:19.905Z,23.10
2019-04-25T17:42:49.772Z,23.00
2019-04-25T17:45:24.503Z,22.90
2019-04-25T17:47:55.068Z,22.70
2019-04-25T17:50:25.201Z,22.60
2019-04-25T17:52:55.117Z,22.50
2019-04-25T17:55:25.062Z,22.40
2019-04-25T17:57:54.882Z,22.30
2019-04-25T18:00:49.952Z,22.10
2019-04-25T18:03:20.448Z,22.00
2019-04-25T18:05:50.650Z,21.80
2019-04-25T18:08:34.651Z,21.60
2019-04-25T18:11:06.021Z,21.50
2019-04-25T18:13:38.794Z,21.40
2019-04-25T18:16:36.434Z,21.30
2019-04-25T18:19:25.947Z,21.20
2019-04-25T18:21:59.961Z,21.00
2019-04-25T18:24:58.869Z,20.90
2019-04-25T18:27:59.398Z,20.80
2019-04-25T18:33:39.276Z,20.50
2019-04-25T18:36:22.243Z,20.30
2019-04-25T18:39:13.086Z,20.10
2019-04-25T18:42:08.209Z,20.10
2019-04-25T18:45:05.534Z,20.00
2019-04-25T18:47:45.105Z,20.00
2019-04-25T18:50:23.186Z,19.90
2019-04-25T18:53:20.402Z,19.80
2019-04-25T18:55:58.136Z,19.80
2019-04-25T19:01:53.615Z,19.60
2019-04-25T19:04:30.653Z,19.40
2019-04-25T19:07:00.508Z,19.30
2019-04-25T19:12:43.220Z,19.10
2019-04-25T19:15:13.885Z,19.10
2019-04-25T19:17:49.653Z,19.10
2019-04-25T19:20:19.664Z,19.00
2019-04-25T19:22:50.230Z,19.10
2019-04-25T19:25:20.458Z,19.10
2019-04-25T19:27:51.037Z,19.20
2019-04-25T19:30:21.338Z,19.20
2019-04-25T19:32:51.603Z,19.20
2019-04-25T19:35:23.880Z,19.10
2019-04-25T19:37:57.002Z,19.00
2019-04-25T19:40:33.902Z,18.90
2019-04-25T19:43:09.669Z,18.80
2019-04-25T19:45:41.015Z,18.70
2019-04-25T19:48:12.059Z,18.60
2019-04-25T19:50:42.928Z,18.60
2019-04-25T19:53:12.866Z,18.50
2019-04-25T19:55:43.430Z,18.50
2019-04-25T19:58:46.683Z,18.40
2019-04-25T20:01:16.537Z,18.30
2019-04-25T20:04:04.870Z,18.20
2019-04-25T20:06:53.803Z,18.10
2019-04-25T20:09:46.930Z,18.20
2019-04-25T20:12:17.225Z,18.30
2019-04-25T20:14:47.196Z,18.30
2019-04-25T20:17:17.218Z,18.30
2019-04-25T20:19:47.681Z,18.10
2019-04-25T20:22:17.929Z,18.10
2019-04-25T20:24:48.338Z,18.00
2019-04-25T20:27:19.354Z,17.90
2019-04-25T20:29:50.451Z,17.80
2019-04-25T20:32:20.628Z,17.80
2019-04-25T20:34:51.042Z,17.80
2019-04-25T20:37:20.885Z,17.70
2019-04-25T20:39:51.495Z,17.70
2019-04-25T20:42:21.825Z,17.60
2019-04-25T20:44:51.732Z,17.50
2019-04-25T20:47:22.758Z,17.50
2019-04-25T20:49:52.958Z,17.40
2019-04-25T20:52:22.985Z,17.30
2019-04-25T20:54:52.923Z,17.40
2019-04-25T20:57:23.006Z,17.40
2019-04-25T20:59:53.903Z,17.40
2019-04-25T21:02:58.283Z,17.40
2019-04-25T21:05:28.205Z,17.40
2019-04-25T21:07:58.055Z,17.30
2019-04-25T21:10:27.906Z,17.10
2019-04-25T21:12:57.817Z,17.10
2019-04-25T21:15:36.157Z,17.00
2019-04-25T21:18:23.006Z,16.90
2019-04-25T21:20:53.306Z,16.80
2019-04-25T21:23:23.673Z,16.70
2019-04-25T21:25:53.566Z,16.70
2019-04-25T21:28:23.717Z,16.50
2019-04-25T21:30:54.548Z,16.30
2019-04-25T21:33:25.797Z,16.30
2019-04-25T21:35:56.264Z,16.20
2019-04-25T21:38:27.217Z,16.10
2019-04-25T21:41:25.154Z,16.20
2019-04-25T21:44:00.180Z,16.20
2019-04-25T21:46:30.349Z,16.30
2019-04-25T21:49:01.071Z,16.20
2019-04-25T21:51:33.977Z,16.10
2019-04-25T21:54:04.166Z,16.00
2019-04-25T21:56:34.344Z,15.90
2019-04-25T21:59:04.349Z,15.80
2019-04-25T22:01:37.298Z,15.70
2019-04-25T22:04:07.361Z,15.60
2019-04-25T22:06:38.990Z,15.50
2019-04-25T22:09:13.593Z,15.40
2019-04-25T22:11:43.769Z,15.20
2019-04-25T22:14:14.454Z,15.10
2019-04-25T22:19:14.267Z,14.80
2019-04-25T22:21:44.391Z,14.80
2019-04-25T22:24:15.229Z,14.60
2019-04-25T22:26:46.737Z,14.40
2019-04-25T22:29:16.768Z,14.20
2019-04-25T22:31:58.580Z,14.00
2019-04-25T22:34:54.321Z,13.80
2019-04-25T22:37:24.230Z,13.60
2019-04-25T22:39:54.258Z,13.50
2019-04-25T22:42:24.127Z,13.40
2019-04-25T22:44:53.987Z,13.40
2019-04-25T22:47:23.811Z,13.40
2019-04-25T22:49:53.705Z,13.40
2019-04-25T22:52:23.884Z,13.40
2019-04-25T22:54:53.713Z,13.50
2019-04-25T22:57:23.858Z,13.50
2019-04-25T22:59:53.609Z,13.50
2019-04-25T23:02:32.601Z,13.60
2019-04-25T23:05:24.310Z,13.80
2019-04-25T23:07:54.373Z,13.80
2019-04-25T23:10:25.551Z,13.70
2019-04-25T23:12:55.431Z,13.70
2019-04-25T23:15:25.245Z,13.60
2019-04-25T23:17:55.604Z,13.70
2019-04-25T23:20:25.426Z,13.80
2019-04-25T23:22:55.324Z,13.80
2019-04-25T23:25:30.810Z,13.80
2019-04-25T23:28:17.869Z,13.80
2019-04-25T23:31:01.578Z,13.90
2019-04-25T23:33:32.418Z,14.00
2019-04-25T23:36:02.650Z,14.00
2019-04-25T23:38:32.489Z,14.20
2019-04-25T23:41:02.612Z,14.30
2019-04-25T23:43:32.813Z,14.30
2019-04-25T23:46:02.749Z,14.10
2019-04-25T23:48:32.880Z,13.90
2019-04-25T23:51:02.778Z,13.70
2019-04-25T23:53:32.661Z,13.50
2019-04-25T23:56:02.559Z,13.20
2019-04-25T23:58:32.814Z,13.10
